Time,TemperatureF,DewpointF,PressureIn,WindDirection,WindDirectionDegrees,WindSpeedMPH,WindSpeedGustMPH,Humidity,HourlyPrecipIn,Conditions,Clouds,dailyrainin,SoftwareType,DateUTC
2013-02-27 00:00:00,24.2,13.0,30.22,SSW,197,2.0,2.0,62,0.00,,,0.00,Wunderground v.1.15,2013-02-27 07:00:00,
2013-02-27 00:05:00,24.0,12.9,30.22,SSW,197,2.0,2.0,62,0.00,,,0.00,Wunderground v.1.15,2013-02-27 07:05:00,
2013-02-27 00:15:00,24.0,12.9,30.22,West,273,2.0,3.0,62,0.00,,,0.00,Wunderground v.1.15,2013-02-27 07:15:00,
2013-02-27 00:20:00,24.1,12.6,30.22,WNW,287,2.0,2.0,61,0.00,,,0.00,Wunderground v.1.15,2013-02-27 07:20:00,
2013-02-27 00:25:00,23.9,12.8,30.22,WNW,288,2.0,2.0,62,0.00,,,0.00,Wunderground v.1.15,2013-02-27 07:25:00,
2013-02-27 00:35:00,23.8,12.3,30.22,West,271,2.0,3.0,61,0.00,,,0.00,Wunderground v.1.15,2013-02-27 07:35:00,
2013-02-27 00:45:00,23.2,12.1,30.22,West,262,2.0,2.0,62,0.00,,,0.00,Wunderground v.1.15,2013-02-27 07:45:00,
2013-02-27 00:50:00,23.4,11.9,30.22,West,263,2.0,2.0,61,0.00,,,0.00,Wunderground v.1.15,2013-02-27 07:50:00,
2013-02-27 00:55:00,23.3,11.8,30.22,WSW,255,2.0,3.0,61,0.00,,,0.00,Wunderground v.1.15,2013-02-27 07:55:00,
2013-02-27 01:00:00,22.8,11.7,30.22,West,274,2.0,2.0,62,0.00,,,0.00,Wunderground v.1.15,2013-02-27 08:00:00,
2013-02-27 01:05:00,22.8,11.7,30.22,West,270,2.0,2.0,62,0.00,,,0.00,Wunderground v.1.15,2013-02-27 08:05:00,
2013-02-27 01:15:00,20.6,11.0,30.23,NE,50,0.0,1.0,66,0.00,,,0.00,Wunderground v.1.15,2013-02-27 08:15:00,
2013-02-27 01:20:00,20.0,11.1,30.23,NE,50,0.0,0.0,68,0.00,,,0.00,Wunderground v.1.15,2013-02-27 08:20:00,
2013-02-27 01:30:00,19.0,11.1,30.24,NNE,33,0.0,0.0,71,0.00,,,0.00,Wunderground v.1.15,2013-02-27 08:30:00,
2013-02-27 01:35:00,18.4,10.9,30.24,WNW,293,0.0,0.0,72,0.00,,,0.00,Wunderground v.1.15,2013-02-27 08:35:00,
2013-02-27 01:40:00,18.1,10.9,30.24,WSW,238,0.0,0.0,73,0.00,,,0.00,Wunderground v.1.15,2013-02-27 08:40:00,
2013-02-27 01:50:00,18.2,11.0,30.24,NE,37,0.0,0.0,73,0.00,,,0.00,Wunderground v.1.15,2013-02-27 08:50:00,
2013-02-27 01:55:00,18.3,11.1,30.24,NE,37,1.0,1.0,73,0.00,,,0.00,Wunderground v.1.15,2013-02-27 08:55:00,
2013-02-27 02:00:00,18.2,10.7,30.24,NNE,33,0.0,0.0,72,0.00,,,0.00,Wunderground v.1.15,2013-02-27 09:00:00,
2013-02-27 02:10:00,17.3,10.4,30.24,WSW,256,0.0,0.0,74,0.00,,,0.00,Wunderground v.1.15,2013-02-27 09:10:00,
2013-02-27 02:15:00,17.1,10.5,30.25,East,94,0.0,1.0,75,0.00,,,0.00,Wunderground v.1.15,2013-02-27 09:15:00,
2013-02-27 02:25:00,16.8,10.2,30.25,East,94,0.0,1.0,75,0.00,,,0.00,Wunderground v.1.15,2013-02-27 09:25:00,
2013-02-27 02:30:00,17.0,10.4,30.25,NW,309,0.0,1.0,75,0.00,,,0.00,Wunderground v.1.15,2013-02-27 09:30:00,
2013-02-27 02:35:00,18.2,10.7,30.25,West,279,1.0,3.0,72,0.00,,,0.00,Wunderground v.1.15,2013-02-27 09:35:00,
2013-02-27 02:40:00,19.6,10.7,30.25,NE,51,2.0,2.0,68,0.00,,,0.00,Wunderground v.1.15,2013-02-27 09:40:00,
2013-02-27 02:45:00,20.0,10.5,30.25,SSW,195,1.0,2.0,66,0.00,,,0.00,Wunderground v.1.15,2013-02-27 09:45:00,
2013-02-27 02:55:00,18.8,10.0,30.25,WNW,287,1.0,1.0,68,0.00,,,0.00,Wunderground v.1.15,2013-02-27 09:55:00,
2013-02-27 03:05:00,17.6,9.5,30.25,SSW,195,0.0,1.0,70,0.00,,,0.00,Wunderground v.1.15,2013-02-27 10:05:00,
2013-02-27 03:15:00,16.6,9.4,30.25,SSW,195,0.0,0.0,73,0.00,,,0.00,Wunderground v.1.15,2013-02-27 10:15:00,
2013-02-27 03:20:00,16.6,9.1,30.25,SSW,195,0.0,0.0,72,0.00,,,0.00,Wunderground v.1.15,2013-02-27 10:20:00,
2013-02-27 03:30:00,16.3,9.5,30.25,SSW,195,0.0,0.0,74,0.00,,,0.00,Wunderground v.1.15,2013-02-27 10:30:00,
2013-02-27 03:35:00,16.5,9.4,30.25,SSW,195,0.0,0.0,73,0.00,,,0.00,Wunderground v.1.15,2013-02-27 10:35:00,
2013-02-27 03:40:00,17.6,9.5,30.25,West,274,1.0,2.0,70,0.00,,,0.00,Wunderground v.1.15,2013-02-27 10:40:00,
2013-02-27 03:50:00,19.6,9.4,30.25,ENE,70,2.0,2.0,64,0.00,,,0.00,Wunderground v.1.15,2013-02-27 10:50:00,
2013-02-27 03:55:00,19.3,8.8,30.26,ENE,70,1.0,2.0,63,0.00,,,0.00,Wunderground v.1.15,2013-02-27 10:55:00,
2013-02-27 04:05:00,17.7,8.6,30.26,NE,34,0.0,1.0,67,0.00,,,0.00,Wunderground v.1.15,2013-02-27 11:05:00,
2013-02-27 04:15:00,16.2,7.8,30.27,NNE,20,1.0,2.0,69,0.00,,,0.00,Wunderground v.1.15,2013-02-27 11:15:00,
2013-02-27 04:20:00,16.0,8.9,30.27,NW,319,1.0,1.0,73,0.00,,,0.00,Wunderground v.1.15,2013-02-27 11:20:00,
2013-02-27 04:30:00,16.1,8.7,30.28,ENE,68,1.0,1.0,72,0.00,,,0.00,Wunderground v.1.15,2013-02-27 11:30:00,
2013-02-27 04:40:00,16.4,8.6,30.28,ENE,62,1.0,1.0,71,0.00,,,0.00,Wunderground v.1.15,2013-02-27 11:40:00,
2013-02-27 04:45:00,15.9,8.5,30.29,NNW,345,1.0,1.0,72,0.00,,,0.00,Wunderground v.1.15,2013-02-27 11:45:00,
2013-02-27 04:50:00,15.8,8.4,30.29,NNW,342,1.0,1.0,72,0.00,,,0.00,Wunderground v.1.15,2013-02-27 11:50:00,
2013-02-27 04:55:00,15.4,8.0,30.29,NNW,343,0.0,1.0,72,0.00,,,0.00,Wunderground v.1.15,2013-02-27 11:55:00,
2013-02-27 05:00:00,15.4,8.0,30.29,NNW,343,0.0,0.0,72,0.00,,,0.00,Wunderground v.1.15,2013-02-27 12:00:00,
2013-02-27 05:05:00,15.2,8.1,30.29,NNW,343,0.0,0.0,73,0.00,,,0.00,Wunderground v.1.15,2013-02-27 12:05:00,
2013-02-27 05:15:00,14.9,8.1,30.29,NNW,340,0.0,0.0,74,0.00,,,0.00,Wunderground v.1.15,2013-02-27 12:15:00,
2013-02-27 05:20:00,14.8,8.0,30.30,SSE,153,0.0,1.0,74,0.00,,,0.00,Wunderground v.1.15,2013-02-27 12:20:00,
2013-02-27 05:25:00,14.5,7.7,30.30,NNE,15,0.0,1.0,74,0.00,,,0.00,Wunderground v.1.15,2013-02-27 12:25:00,
2013-02-27 05:30:00,14.4,7.9,30.30,NE,44,1.0,1.0,75,0.00,,,0.00,Wunderground v.1.15,2013-02-27 12:30:00,
2013-02-27 05:35:00,14.4,7.9,30.30,West,275,1.0,2.0,75,0.00,,,0.00,Wunderground v.1.15,2013-02-27 12:35:00,
2013-02-27 05:40:00,15.3,7.9,30.30,SW,225,1.0,1.0,72,0.00,,,0.00,Wunderground v.1.15,2013-02-27 12:40:00,
2013-02-27 05:45:00,16.3,8.2,30.30,WSW,243,1.0,1.0,70,0.00,,,0.00,Wunderground v.1.15,2013-02-27 12:45:00,
2013-02-27 05:50:00,16.0,7.6,30.30,NE,49,1.0,1.0,69,0.00,,,0.00,Wunderground v.1.15,2013-02-27 12:50:00,
2013-02-27 05:55:00,15.4,7.4,30.30,East,79,1.0,1.0,70,0.00,,,0.00,Wunderground v.1.15,2013-02-27 12:55:00,
2013-02-27 06:05:00,15.1,7.4,30.31,NE,52,1.0,1.0,71,0.00,,,0.00,Wunderground v.1.15,2013-02-27 13:05:00,
2013-02-27 06:15:00,15.1,8.0,30.31,NNE,25,0.0,1.0,73,0.00,,,0.00,Wunderground v.1.15,2013-02-27 13:15:00,
2013-02-27 06:20:00,14.9,7.2,30.31,NE,46,0.0,1.0,71,0.00,,,0.00,Wunderground v.1.15,2013-02-27 13:20:00,
2013-02-27 06:25:00,14.5,7.1,30.31,NNE,31,1.0,1.0,72,0.00,,,0.00,Wunderground v.1.15,2013-02-27 13:25:00,
2013-02-27 06:30:00,14.2,6.8,30.31,NNW,344,1.0,2.0,72,0.00,,,0.00,Wunderground v.1.15,2013-02-27 13:30:00,
2013-02-27 06:35:00,14.3,7.2,30.31,East,82,1.0,2.0,73,0.00,,,0.00,Wunderground v.1.15,2013-02-27 13:35:00,
2013-02-27 06:40:00,14.2,7.1,30.31,East,82,1.0,1.0,73,0.00,,,0.00,Wunderground v.1.15,2013-02-27 13:40:00,
2013-02-27 06:50:00,14.4,7.0,30.31,ESE,107,1.0,1.0,72,0.00,,,0.00,Wunderground v.1.15,2013-02-27 13:50:00,
2013-02-27 06:55:00,14.3,6.9,30.31,North,358,1.0,2.0,72,0.00,,,0.00,Wunderground v.1.15,2013-02-27 13:55:00,
2013-02-27 07:00:00,15.1,7.7,30.31,ENE,64,1.0,1.0,72,0.00,,,0.00,Wunderground v.1.15,2013-02-27 14:00:00,
2013-02-27 07:05:00,16.2,8.1,30.32,ESE,110,1.0,1.0,70,0.00,,,0.00,Wunderground v.1.15,2013-02-27 14:05:00,
2013-02-27 07:15:00,19.6,9.0,30.31,WSW,257,3.0,6.0,63,0.00,,,0.00,Wunderground v.1.15,2013-02-27 14:15:00,
2013-02-27 07:20:00,20.8,9.1,30.32,WNW,285,3.0,4.0,60,0.00,,,0.00,Wunderground v.1.15,2013-02-27 14:20:00,
2013-02-27 07:30:00,22.7,8.9,30.32,NNW,330,2.0,3.0,55,0.00,,,0.00,Wunderground v.1.15,2013-02-27 14:30:00,
2013-02-27 07:40:00,24.0,8.5,30.32,WSW,252,2.0,2.0,51,0.00,,,0.00,Wunderground v.1.15,2013-02-27 14:40:00,
2013-02-27 07:45:00,24.6,8.6,30.32,NNE,25,2.0,2.0,50,0.00,,,0.00,Wunderground v.1.15,2013-02-27 14:45:00,
2013-02-27 07:50:00,24.2,8.7,30.33,ENE,60,2.0,2.0,51,0.00,,,0.00,Wunderground v.1.15,2013-02-27 14:50:00,
2013-02-27 07:55:00,23.4,9.2,30.33,ENE,61,1.0,2.0,54,0.00,,,0.00,Wunderground v.1.15,2013-02-27 14:55:00,
2013-02-27 08:00:00,23.8,10.0,30.33,SE,146,1.0,1.0,55,0.00,,,0.00,Wunderground v.1.15,2013-02-27 15:00:00,
2013-02-27 08:05:00,24.3,9.6,30.33,WSW,240,1.0,1.0,53,0.00,,,0.00,Wunderground v.1.15,2013-02-27 15:05:00,
2013-02-27 08:15:00,25.2,10.0,30.33,ENE,70,1.0,2.0,52,0.00,,,0.00,Wunderground v.1.15,2013-02-27 15:15:00,
2013-02-27 08:20:00,25.6,11.7,30.33,South,170,1.0,1.0,55,0.00,,,0.00,Wunderground v.1.15,2013-02-27 15:20:00,
2013-02-27 08:25:00,26.9,10.7,30.33,SE,139,0.0,1.0,50,0.00,,,0.00,Wunderground v.1.15,2013-02-27 15:25:00,
2013-02-27 08:30:00,27.4,11.2,30.33,East,86,0.0,0.0,50,0.00,,,0.00,Wunderground v.1.15,2013-02-27 15:30:00,
2013-02-27 08:35:00,27.9,11.2,30.33,ENE,70,1.0,2.0,49,0.00,,,0.00,Wunderground v.1.15,2013-02-27 15:35:00,
2013-02-27 08:40:00,27.8,10.6,30.33,ENE,67,1.0,1.0,48,0.00,,,0.00,Wunderground v.1.15,2013-02-27 15:40:00,
2013-02-27 08:45:00,28.2,11.5,30.33,East,98,1.0,1.0,49,0.00,,,0.00,Wunderground v.1.15,2013-02-27 15:45:00,
2013-02-27 08:50:00,29.1,12.8,30.32,North,8,1.0,2.0,50,0.00,,,0.00,Wunderground v.1.15,2013-02-27 15:50:00,
2013-02-27 09:00:00,30.0,12.2,30.32,ENE,70,1.0,1.0,47,0.00,,,0.00,Wunderground v.1.15,2013-02-27 16:00:00,
2013-02-27 09:05:00,30.8,13.4,30.32,North,352,1.0,1.0,48,0.00,,,0.00,Wunderground v.1.15,2013-02-27 16:05:00,
2013-02-27 09:15:00,31.7,13.3,30.31,WSW,243,2.0,2.0,46,0.00,,,0.00,Wunderground v.1.15,2013-02-27 16:15:00,
2013-02-27 09:20:00,32.6,15.1,30.32,South,188,2.0,2.0,48,0.00,,,0.00,Wunderground v.1.15,2013-02-27 16:20:00,
2013-02-27 09:25:00,34.3,14.1,30.31,WSW,248,1.0,2.0,43,0.00,,,0.00,Wunderground v.1.15,2013-02-27 16:25:00,
2013-02-27 09:30:00,34.4,12.0,30.31,ESE,117,1.0,1.0,39,0.00,,,0.00,Wunderground v.1.15,2013-02-27 16:30:00,
2013-02-27 09:40:00,34.3,12.4,30.31,East,84,1.0,1.0,40,0.00,,,0.00,Wunderground v.1.15,2013-02-27 16:40:00,
2013-02-27 09:50:00,34.7,10.4,30.31,ESE,121,2.0,2.0,36,0.00,,,0.00,Wunderground v.1.15,2013-02-27 16:50:00,
2013-02-27 09:55:00,34.8,8.6,30.31,East,92,2.0,2.0,33,0.00,,,0.00,Wunderground v.1.15,2013-02-27 16:55:00,
2013-02-27 10:00:00,35.0,10.1,30.31,SE,137,2.0,2.0,35,0.00,,,0.00,Wunderground v.1.15,2013-02-27 17:00:00,
2013-02-27 10:05:00,34.9,10.6,30.31,SE,146,3.0,3.0,36,0.00,,,0.00,Wunderground v.1.15,2013-02-27 17:05:00,
2013-02-27 10:15:00,34.1,12.8,30.31,SE,124,3.0,4.0,41,0.00,,,0.00,Wunderground v.1.15,2013-02-27 17:15:00,
2013-02-27 10:20:00,34.0,13.3,30.31,NE,54,3.0,4.0,42,0.00,,,0.00,Wunderground v.1.15,2013-02-27 17:20:00,
2013-02-27 10:25:00,33.4,13.3,30.31,SE,138,3.0,4.0,43,0.00,,,0.00,Wunderground v.1.15,2013-02-27 17:25:00,
2013-02-27 10:35:00,33.4,11.6,30.31,ESE,107,3.0,3.0,40,0.00,,,0.00,Wunderground v.1.15,2013-02-27 17:35:00,
2013-02-27 10:40:00,33.4,11.6,30.31,SE,130,3.0,3.0,40,0.00,,,0.00,Wunderground v.1.15,2013-02-27 17:40:00,
2013-02-27 10:45:00,33.7,11.3,30.31,SE,133,3.0,3.0,39,0.00,,,0.00,Wunderground v.1.15,2013-02-27 17:45:00,
2013-02-27 10:50:00,33.9,12.1,30.31,SE,134,3.0,4.0,40,0.00,,,0.00,Wunderground v.1.15,2013-02-27 17:50:00,
2013-02-27 11:00:00,33.9,11.5,30.31,SE,135,3.0,3.0,39,0.00,,,0.00,Wunderground v.1.15,2013-02-27 18:00:00,
2013-02-27 11:05:00,34.3,11.9,30.31,SE,145,3.0,3.0,39,0.00,,,0.00,Wunderground v.1.15,2013-02-27 18:05:00,
2013-02-27 11:15:00,34.5,10.9,30.31,SSE,150,3.0,4.0,37,0.00,,,0.00,Wunderground v.1.15,2013-02-27 18:15:00,
2013-02-27 11:20:00,34.9,12.4,30.31,SE,126,3.0,3.0,39,0.00,,,0.00,Wunderground v.1.15,2013-02-27 18:20:00,
2013-02-27 11:25:00,34.9,11.8,30.31,South,171,3.0,3.0,38,0.00,,,0.00,Wunderground v.1.15,2013-02-27 18:25:00,
2013-02-27 11:35:00,34.6,9.7,30.32,ENE,68,4.0,5.0,35,0.00,,,0.00,Wunderground v.1.15,2013-02-27 18:35:00,
2013-02-27 11:40:00,34.3,10.1,30.32,ESE,112,4.0,4.0,36,0.00,,,0.00,Wunderground v.1.15,2013-02-27 18:40:00,
2013-02-27 11:45:00,34.3,10.1,30.31,East,87,4.0,4.0,36,0.00,,,0.00,Wunderground v.1.15,2013-02-27 18:45:00,
2013-02-27 11:55:00,34.4,9.5,30.31,ENE,77,4.0,5.0,35,0.00,,,0.00,Wunderground v.1.15,2013-02-27 18:55:00,
2013-02-27 12:00:00,34.8,10.5,30.31,ESE,121,4.0,4.0,36,0.00,,,0.00,Wunderground v.1.15,2013-02-27 19:00:00,
2013-02-27 12:05:00,35.2,10.2,30.31,ESE,121,3.0,8.0,35,0.00,,,0.00,Wunderground v.1.15,2013-02-27 19:05:00,
2013-02-27 12:15:00,35.5,10.5,30.30,SSE,149,3.0,4.0,35,0.00,,,0.00,Wunderground v.1.15,2013-02-27 19:15:00,
2013-02-27 12:20:00,35.3,11.0,30.30,SSE,147,3.0,3.0,36,0.00,,,0.00,Wunderground v.1.15,2013-02-27 19:20:00,
2013-02-27 12:25:00,35.0,10.7,30.30,South,181,4.0,4.0,36,0.00,,,0.00,Wunderground v.1.15,2013-02-27 19:25:00,
2013-02-27 12:35:00,35.5,10.5,30.30,SSE,157,3.0,3.0,35,0.00,,,0.00,Wunderground v.1.15,2013-02-27 19:35:00,
2013-02-27 12:45:00,35.2,11.5,30.29,NE,53,4.0,4.0,37,0.00,,,0.00,Wunderground v.1.15,2013-02-27 19:45:00,
2013-02-27 12:50:00,35.4,11.1,30.29,ESE,117,3.0,5.0,36,0.00,,,0.00,Wunderground v.1.15,2013-02-27 19:50:00,
2013-02-27 12:55:00,35.5,11.1,30.29,NE,43,4.0,5.0,36,0.00,,,0.00,Wunderground v.1.15,2013-02-27 19:55:00,
2013-02-27 13:00:00,35.1,10.8,30.28,ENE,76,4.0,4.0,36,0.00,,,0.00,Wunderground v.1.15,2013-02-27 20:00:00,
2013-02-27 13:10:00,34.7,10.4,30.29,NE,56,4.0,4.0,36,0.00,,,0.00,Wunderground v.1.15,2013-02-27 20:10:00,
2013-02-27 13:20:00,35.1,10.8,30.28,SE,132,4.0,4.0,36,0.00,,,0.00,Wunderground v.1.15,2013-02-27 20:20:00,
2013-02-27 13:25:00,35.2,10.9,30.28,ESE,104,4.0,4.0,36,0.00,,,0.00,Wunderground v.1.15,2013-02-27 20:25:00,
2013-02-27 13:30:00,35.1,11.4,30.28,SSE,155,4.0,4.0,37,0.00,,,0.00,Wunderground v.1.15,2013-02-27 20:30:00,
2013-02-27 13:35:00,35.1,10.8,30.28,ESE,104,4.0,4.0,36,0.00,,,0.00,Wunderground v.1.15,2013-02-27 20:35:00,
2013-02-27 13:40:00,35.3,10.3,30.28,SE,135,4.0,4.0,35,0.00,,,0.00,Wunderground v.1.15,2013-02-27 20:40:00,
2013-02-27 13:50:00,34.9,11.8,30.27,ESE,117,4.0,5.0,38,0.00,,,0.01,Wunderground v.1.15,2013-02-27 20:50:00,
2013-02-27 13:55:00,35.0,10.7,30.28,ESE,107,4.0,5.0,36,0.00,,,0.01,Wunderground v.1.15,2013-02-27 20:55:00,
2013-02-27 14:00:00,35.2,11.5,30.28,East,96,4.0,5.0,37,0.00,,,0.01,Wunderground v.1.15,2013-02-27 21:00:00,
2013-02-27 14:05:00,34.8,10.5,30.27,ESE,110,4.0,5.0,36,0.00,,,0.02,Wunderground v.1.15,2013-02-27 21:05:00,
2013-02-27 14:15:00,34.9,10.6,30.27,SSE,149,4.0,5.0,36,0.00,,,0.02,Wunderground v.1.15,2013-02-27 21:15:00,
2013-02-27 14:25:00,35.1,9.5,30.27,ESE,121,4.0,4.0,34,0.00,,,0.02,Wunderground v.1.15,2013-02-27 21:25:00,
2013-02-27 14:35:00,35.6,11.2,30.27,East,96,2.0,3.0,36,0.00,,,0.02,Wunderground v.1.15,2013-02-27 21:35:00,
2013-02-27 14:40:00,35.7,10.7,30.27,ENE,65,2.0,6.0,35,0.00,,,0.02,Wunderground v.1.15,2013-02-27 21:40:00,
2013-02-27 14:45:00,34.9,10.0,30.27,ESE,117,3.0,6.0,35,0.00,,,0.02,Wunderground v.1.15,2013-02-27 21:45:00,
2013-02-27 14:50:00,34.2,9.4,30.27,ENE,65,4.0,4.0,35,0.00,,,0.02,Wunderground v.1.15,2013-02-27 21:50:00,
2013-02-27 15:00:00,33.8,10.2,30.27,ENE,78,3.0,5.0,37,0.00,,,0.02,Wunderground v.1.15,2013-02-27 22:00:00,
2013-02-27 15:05:00,33.4,10.5,30.27,NE,40,3.0,5.0,38,0.00,,,0.02,Wunderground v.1.15,2013-02-27 22:05:00,
2013-02-27 15:15:00,33.1,11.4,30.27,ESE,106,2.0,2.0,40,0.00,,,0.02,Wunderground v.1.15,2013-02-27 22:15:00,
2013-02-27 15:20:00,33.1,11.4,30.27,SE,127,2.0,2.0,40,0.00,,,0.02,Wunderground v.1.15,2013-02-27 22:20:00,
2013-02-27 15:25:00,33.1,11.9,30.27,SE,139,2.0,2.0,41,0.00,,,0.02,Wunderground v.1.15,2013-02-27 22:25:00,
2013-02-27 15:30:00,33.5,12.3,30.27,ENE,70,3.0,6.0,41,0.00,,,0.02,Wunderground v.1.15,2013-02-27 22:30:00,
2013-02-27 15:35:00,32.9,12.3,30.27,East,84,3.0,6.0,42,0.00,,,0.02,Wunderground v.1.15,2013-02-27 22:35:00,
2013-02-27 15:40:00,32.3,11.7,30.27,ESE,117,3.0,3.0,42,0.00,,,0.02,Wunderground v.1.15,2013-02-27 22:40:00,
2013-02-27 15:45:00,32.2,12.2,30.27,ESE,103,4.0,4.0,43,0.00,,,0.02,Wunderground v.1.15,2013-02-27 22:45:00,
2013-02-27 15:50:00,32.6,12.5,30.27,East,91,4.0,4.0,43,0.00,,,0.02,Wunderground v.1.15,2013-02-27 22:50:00,
2013-02-27 15:55:00,33.1,13.0,30.27,NE,54,3.0,4.0,43,0.00,,,0.02,Wunderground v.1.15,2013-02-27 22:55:00,
2013-02-27 16:00:00,33.2,12.6,30.27,ENE,57,3.0,3.0,42,0.00,,,0.02,Wunderground v.1.15,2013-02-27 23:00:00,
2013-02-27 16:05:00,33.4,13.8,30.28,SE,127,4.0,4.0,44,0.00,,,0.02,Wunderground v.1.15,2013-02-27 23:05:00,
2013-02-27 16:15:00,33.6,14.0,30.28,East,88,3.0,6.0,44,0.00,,,0.02,Wunderground v.1.15,2013-02-27 23:15:00,
2013-02-27 16:20:00,33.5,14.4,30.27,ENE,58,3.0,5.0,45,0.00,,,0.02,Wunderground v.1.15,2013-02-27 23:20:00,
2013-02-27 16:25:00,33.3,14.7,30.27,NE,54,4.0,5.0,46,0.00,,,0.02,Wunderground v.1.15,2013-02-27 23:25:00,
2013-02-27 16:30:00,33.2,15.1,30.28,ESE,115,4.0,4.0,47,0.00,,,0.02,Wunderground v.1.15,2013-02-27 23:30:00,
2013-02-27 16:35:00,33.1,14.5,30.28,ENE,64,3.0,6.0,46,0.00,,,0.02,Wunderground v.1.15,2013-02-27 23:35:00,
2013-02-27 16:40:00,32.7,14.7,30.28,SE,124,4.0,4.0,47,0.00,,,0.02,Wunderground v.1.15,2013-02-27 23:40:00,
2013-02-27 16:45:00,32.5,14.0,30.28,ENE,78,5.0,5.0,46,0.00,,,0.02,Wunderground v.1.15,2013-02-27 23:45:00,
2013-02-27 16:50:00,32.4,14.4,30.28,ENE,57,4.0,4.0,47,0.00,,,0.02,Wunderground v.1.15,2013-02-27 23:50:00,
2013-02-27 17:00:00,32.0,13.5,30.28,NE,56,4.0,4.0,46,0.00,,,0.02,Wunderground v.1.15,2013-02-28 00:00:00,
2013-02-27 17:05:00,31.8,13.8,30.28,NNE,32,4.0,5.0,47,0.00,,,0.02,Wunderground v.1.15,2013-02-28 00:05:00,
2013-02-27 17:15:00,31.0,14.5,30.28,East,94,4.0,7.0,50,0.00,,,0.02,Wunderground v.1.15,2013-02-28 00:15:00,
2013-02-27 17:20:00,30.6,14.6,30.28,ESE,110,4.0,4.0,51,0.00,,,0.02,Wunderground v.1.15,2013-02-28 00:20:00,
2013-02-27 17:25:00,30.2,15.1,30.28,East,94,3.0,4.0,53,0.00,,,0.02,Wunderground v.1.15,2013-02-28 00:25:00,
2013-02-27 17:35:00,29.5,15.3,30.29,ENE,72,2.0,2.0,55,0.00,,,0.02,Wunderground v.1.15,2013-02-28 00:35:00,
2013-02-27 17:40:00,29.3,15.1,30.29,East,82,3.0,3.0,55,0.00,,,0.02,Wunderground v.1.15,2013-02-28 00:40:00,
2013-02-27 17:45:00,29.0,15.2,30.29,ENE,74,3.0,3.0,56,0.00,,,0.02,Wunderground v.1.15,2013-02-28 00:45:00,
2013-02-27 17:55:00,28.5,14.8,30.29,NE,47,3.0,4.0,56,0.00,,,0.02,Wunderground v.1.15,2013-02-28 00:55:00,
2013-02-27 18:00:00,28.3,15.0,30.29,ENE,75,3.0,3.0,57,0.00,,,0.02,Wunderground v.1.15,2013-02-28 01:00:00,
2013-02-27 18:05:00,28.1,15.2,30.29,ENE,76,2.0,3.0,58,0.00,,,0.02,Wunderground v.1.15,2013-02-28 01:05:00,
2013-02-27 18:15:00,27.7,15.2,30.30,ENE,71,2.0,4.0,59,0.00,,,0.02,Wunderground v.1.15,2013-02-28 01:15:00,
2013-02-27 18:20:00,27.5,15.0,30.30,ENE,58,2.0,2.0,59,0.00,,,0.02,Wunderground v.1.15,2013-02-28 01:20:00,
2013-02-27 18:30:00,27.3,14.8,30.31,ENE,60,2.0,2.0,59,0.00,,,0.02,Wunderground v.1.15,2013-02-28 01:30:00,
2013-02-27 18:35:00,27.2,14.8,30.31,ENE,65,1.0,2.0,59,0.00,,,0.02,Wunderground v.1.15,2013-02-28 01:35:00,
2013-02-27 18:40:00,27.0,14.9,30.32,North,7,1.0,1.0,60,0.00,,,0.02,Wunderground v.1.15,2013-02-28 01:40:00,
2013-02-27 18:45:00,26.7,14.7,30.32,ENE,58,1.0,1.0,60,0.00,,,0.02,Wunderground v.1.15,2013-02-28 01:45:00,
2013-02-27 18:50:00,26.6,14.6,30.32,ENE,67,1.0,1.0,60,0.00,,,0.02,Wunderground v.1.15,2013-02-28 01:50:00,
2013-02-27 19:00:00,25.9,14.7,30.32,WNW,289,0.0,1.0,62,0.00,,,0.02,Wunderground v.1.15,2013-02-28 02:00:00,
2013-02-27 19:10:00,25.0,14.5,30.32,West,259,1.0,1.0,64,0.00,,,0.02,Wunderground v.1.15,2013-02-28 02:10:00,
2013-02-27 19:15:00,24.6,14.9,30.32,West,261,1.0,1.0,66,0.00,,,0.02,Wunderground v.1.15,2013-02-28 02:15:00,
2013-02-27 19:20:00,24.7,14.9,30.32,West,263,1.0,1.0,66,0.00,,,0.02,Wunderground v.1.15,2013-02-28 02:20:00,
2013-02-27 19:25:00,24.3,14.6,30.32,West,263,0.0,1.0,66,0.00,,,0.02,Wunderground v.1.15,2013-02-28 02:25:00,
2013-02-27 19:35:00,23.5,14.5,30.32,West,265,1.0,2.0,68,0.00,,,0.02,Wunderground v.1.15,2013-02-28 02:35:00,
2013-02-27 19:40:00,23.4,14.4,30.32,West,265,1.0,1.0,68,0.00,,,0.02,Wunderground v.1.15,2013-02-28 02:40:00,
2013-02-27 19:45:00,23.0,14.3,30.31,West,266,0.0,1.0,69,0.00,,,0.02,Wunderground v.1.15,2013-02-28 02:45:00,
2013-02-27 19:55:00,22.9,14.6,30.31,West,270,1.0,1.0,70,0.00,,,0.02,Wunderground v.1.15,2013-02-28 02:55:00,
2013-02-27 20:00:00,22.6,14.0,30.31,NE,37,1.0,1.0,69,0.00,,,0.02,Wunderground v.1.15,2013-02-28 03:00:00,
2013-02-27 20:05:00,21.9,13.6,30.32,NE,37,0.0,1.0,70,0.00,,,0.02,Wunderground v.1.15,2013-02-28 03:05:00,
2013-02-27 20:15:00,21.0,13.4,30.32,NE,37,0.0,1.0,72,0.00,,,0.02,Wunderground v.1.15,2013-02-28 03:15:00,
2013-02-27 20:20:00,20.5,12.9,30.32,ENE,78,0.0,0.0,72,0.00,,,0.02,Wunderground v.1.15,2013-02-28 03:20:00,
2013-02-27 20:25:00,20.2,13.2,30.32,ENE,78,0.0,1.0,74,0.00,,,0.02,Wunderground v.1.15,2013-02-28 03:25:00,
2013-02-27 20:35:00,20.9,14.2,30.33,West,281,1.0,2.0,75,0.00,,,0.02,Wunderground v.1.15,2013-02-28 03:35:00,
2013-02-27 20:45:00,22.9,14.2,30.33,West,275,2.0,3.0,69,0.00,,,0.02,Wunderground v.1.15,2013-02-28 03:45:00,
2013-02-27 20:50:00,23.2,14.2,30.32,NW,304,3.0,3.0,68,0.00,,,0.02,Wunderground v.1.15,2013-02-28 03:50:00,
2013-02-27 20:55:00,23.1,13.8,30.32,NNW,328,3.0,3.0,67,0.00,,,0.02,Wunderground v.1.15,2013-02-28 03:55:00,
2013-02-27 21:00:00,23.1,13.8,30.33,SW,226,3.0,3.0,67,0.00,,,0.02,Wunderground v.1.15,2013-02-28 04:00:00,
2013-02-27 21:05:00,23.2,13.5,30.33,West,273,2.0,3.0,66,0.00,,,0.02,Wunderground v.1.15,2013-02-28 04:05:00,
2013-02-27 21:15:00,23.2,13.5,30.33,NW,315,2.0,2.0,66,0.00,,,0.02,Wunderground v.1.15,2013-02-28 04:15:00,
2013-02-27 21:20:00,23.1,13.4,30.33,WNW,285,2.0,2.0,66,0.00,,,0.02,Wunderground v.1.15,2013-02-28 04:20:00,
2013-02-27 21:25:00,22.8,13.1,30.33,WSW,241,2.0,2.0,66,0.00,,,0.02,Wunderground v.1.15,2013-02-28 04:25:00,
2013-02-27 21:30:00,22.4,13.1,30.33,WSW,249,2.0,2.0,67,0.00,,,0.02,Wunderground v.1.15,2013-02-28 04:30:00,
2013-02-27 21:35:00,22.4,13.1,30.33,West,261,1.0,2.0,67,0.00,,,0.02,Wunderground v.1.15,2013-02-28 04:35:00,
2013-02-27 21:40:00,21.8,12.5,30.33,ENE,57,1.0,1.0,67,0.00,,,0.02,Wunderground v.1.15,2013-02-28 04:40:00,
2013-02-27 21:45:00,21.2,12.3,30.33,NNW,340,1.0,1.0,68,0.00,,,0.02,Wunderground v.1.15,2013-02-28 04:45:00,
2013-02-27 21:55:00,20.7,12.1,30.32,ENE,70,0.0,1.0,69,0.00,,,0.02,Wunderground v.1.15,2013-02-28 04:55:00,
2013-02-27 22:00:00,20.3,12.1,30.32,West,262,1.0,1.0,70,0.00,,,0.02,Wunderground v.1.15,2013-02-28 05:00:00,
2013-02-27 22:05:00,20.2,11.7,30.33,NE,51,1.0,1.0,69,0.00,,,0.02,Wunderground v.1.15,2013-02-28 05:05:00,
2013-02-27 22:15:00,20.2,11.3,30.33,ENE,60,1.0,3.0,68,0.00,,,0.02,Wunderground v.1.15,2013-02-28 05:15:00,
2013-02-27 22:20:00,20.2,10.6,30.33,ENE,65,1.0,2.0,66,0.00,,,0.02,Wunderground v.1.15,2013-02-28 05:20:00,
2013-02-27 22:25:00,20.9,10.3,30.33,SW,228,2.0,4.0,63,0.00,,,0.02,Wunderground v.1.15,2013-02-28 05:25:00,
2013-02-27 22:30:00,21.7,9.9,30.33,SSW,201,2.0,2.0,60,0.00,,,0.02,Wunderground v.1.15,2013-02-28 05:30:00,
2013-02-27 22:35:00,20.8,10.2,30.33,NE,44,2.0,2.0,63,0.00,,,0.02,Wunderground v.1.15,2013-02-28 05:35:00,
2013-02-27 22:40:00,20.0,10.5,30.33,ENE,63,1.0,1.0,66,0.00,,,0.02,Wunderground v.1.15,2013-02-28 05:40:00,
2013-02-27 22:45:00,20.3,9.3,30.33,WNW,285,1.0,2.0,62,0.00,,,0.02,Wunderground v.1.15,2013-02-28 05:45:00,
2013-02-27 22:50:00,21.2,9.8,30.33,North,4,1.0,5.0,61,0.00,,,0.02,Wunderground v.1.15,2013-02-28 05:50:00,
2013-02-27 23:00:00,20.9,9.5,30.32,East,96,2.0,2.0,61,0.00,,,0.02,Wunderground v.1.15,2013-02-28 06:00:00,
2013-02-27 23:05:00,19.9,10.0,30.32,West,269,1.0,2.0,65,0.00,,,0.02,Wunderground v.1.15,2013-02-28 06:05:00,
2013-02-27 23:15:00,20.8,11.2,30.33,NW,323,3.0,5.0,66,0.00,,,0.02,Wunderground v.1.15,2013-02-28 06:15:00,
2013-02-27 23:20:00,21.5,11.2,30.33,WSW,248,3.0,3.0,64,0.00,,,0.02,Wunderground v.1.15,2013-02-28 06:20:00,
2013-02-27 23:25:00,21.9,10.9,30.33,WSW,245,2.0,3.0,62,0.00,,,0.02,Wunderground v.1.15,2013-02-28 06:25:00,
2013-02-27 23:35:00,21.9,8.2,30.33,NW,315,2.0,4.0,55,0.00,,,0.02,Wunderground v.1.15,2013-02-28 06:35:00,
2013-02-27 23:45:00,21.8,8.9,30.33,NNE,29,2.0,3.0,57,0.00,,,0.02,Wunderground v.1.15,2013-02-28 06:45:00,
2013-02-27 23:50:00,20.2,8.9,30.33,ESE,121,1.0,1.0,61,0.00,,,0.02,Wunderground v.1.15,2013-02-28 06:50:00,
2013-02-27 23:55:00,19.5,8.6,30.33,West,270,1.0,2.0,62,0.00,,,0.02,Wunderground v.1.15,2013-02-28 06:55:00,